Time;durP1;ratioP1;P1;durP2;ratioP2;P2;SDS_P1;SDS_P2;PMS_P1;PMS_P2;Temp;Humidity;BMP_temperature;BMP_pressure;BME280_temperature;BME280_humidity;BME280_pressure;Samples;Min_cycle;Max_cycle;Signal;HPM_P1;HPM_P2
2023/11/11 00:01:08;;;;;;;4.75;2.92;;;11.90;96.70;;;;;;4908283;29;20099;-75
2023/11/11 00:04:10;;;;;;;5.07;3.22;;;12.00;96.70;;;;;;4911533;29;20072;-75
2023/11/11 00:07:09;;;;;;;7.90;3.83;;;11.90;96.70;;;;;;4898008;29;20455;-75
2023/11/11 00:10:51;;;;;;;5.57;3.42;;;11.90;96.70;;;;;;4852682;29;20060;-75
2023/11/11 00:19:53;;;;;;;7.38;3.63;;;11.80;96.70;;;;;;4925937;29;20055;-75
2023/11/11 00:27:21;;;;;;;5.72;3.55;;;11.70;96.70;;;;;;4924380;29;20471;-75
2023/11/11 00:30:25;;;;;;;6.28;3.45;;;11.60;96.70;;;;;;4924915;29;20040;-75
2023/11/11 00:32:56;;;;;;;5.32;3.20;;;11.60;96.70;;;;;;4898594;29;20049;-75
2023/11/11 00:35:29;;;;;;;6.47;3.28;;;11.60;96.70;;;;;;4932159;29;20043;-75
2023/11/11 00:38:26;;;;;;;6.78;3.35;;;11.60;96.70;;;;;;4909054;29;20059;-75
2023/11/11 00:40:55;;;;;;;5.30;3.45;;;11.60;96.70;;;;;;4928123;29;20046;-74
2023/11/11 00:43:35;;;;;;;6.63;3.40;;;11.60;96.70;;;;;;4906982;29;20063;-76
2023/11/11 00:46:33;;;;;;;5.45;2.80;;;11.50;96.70;;;;;;4907192;29;20092;-76
2023/11/11 00:49:11;;;;;;;5.30;3.58;;;11.50;96.70;;;;;;4926202;29;20027;-75
2023/11/11 00:52:16;;;;;;;5.13;2.90;;;11.50;96.70;;;;;;4925475;29;20059;-76
2023/11/11 00:54:55;;;;;;;4.85;3.15;;;11.50;96.70;;;;;;4924588;29;20120;-75
2023/11/11 00:57:28;;;;;;;7.72;3.08;;;11.50;96.70;;;;;;4924404;29;20044;-76
2023/11/11 01:00:03;;;;;;;5.28;3.17;;;11.40;96.70;;;;;;4913226;29;20062;-76
2023/11/11 01:06:33;;;;;;;4.28;2.30;;;11.40;96.70;;;;;;4908229;29;20062;-75
2023/11/11 01:09:28;;;;;;;5.70;2.95;;;11.30;96.70;;;;;;4923904;29;20036;-76
2023/11/11 01:12:53;;;;;;;;;;;;;;;;;;;;;
2023/11/11 01:15:51;;;;;;;5.10;2.72;;;11.30;96.70;;;;;;4928856;29;20095;-76
2023/11/11 01:19:52;;;;;;;5.40;2.90;;;11.30;96.70;;;;;;4918528;29;20054;-76
2023/11/11 01:22:51;;;;;;;5.32;2.95;;;11.30;96.70;;;;;;4926929;29;20138;-76
2023/11/11 01:25:26;;;;;;;6.55;3.65;;;11.30;96.70;;;;;;4903800;29;20059;-75
2023/11/11 01:27:55;;;;;;;6.43;3.08;;;11.40;96.70;;;;;;4908097;29;20040;-76
2023/11/11 01:38:00;;;;;;;4.25;2.60;;;11.40;96.70;;;;;;4805882;29;20120;-75
2023/11/11 01:40:33;;;;;;;5.00;3.05;;;11.30;96.70;;;;;;4812996;29;20080;-75
2023/11/11 01:43:48;;;;;;;5.07;2.75;;;11.30;96.70;;;;;;4874739;29;20057;-75
2023/11/11 01:47:09;;;;;;;5.78;3.10;;;11.30;96.70;;;;;;4871315;29;20057;-75
2023/11/11 01:49:43;;;;;;;4.60;2.88;;;11.30;96.70;;;;;;4876359;29;20041;-75
2023/11/11 01:52:30;;;;;;;5.30;3.13;;;11.30;96.70;;;;;;4861124;29;20488;-75
2023/11/11 01:58:29;;;;;;;;;;;11.10;96.70;;;;;;4842132;29;20048;-75
2023/11/11 02:06:25;;;;;;;7.03;3.13;;;11.10;96.70;;;;;;4831972;29;20151;-75
2023/11/11 02:09:39;;;;;;;5.57;2.80;;;11.00;96.70;;;;;;4833184;29;20081;-76
2023/11/11 02:12:15;;;;;;;4.32;2.35;;;11.00;96.70;;;;;;4834939;29;20354;-75
2023/11/11 02:16:22;;;;;;;4.25;2.65;;;11.00;96.70;;;;;;4864285;29;20068;-75
2023/11/11 02:23:35;;;;;;;3.92;2.35;;;10.90;96.70;;;;;;4865395;29;20105;-75
2023/11/11 02:29:32;;;;;;;4.65;2.10;;;11.00;96.70;;;;;;4855318;29;20045;-76
2023/11/11 02:36:52;;;;;;;6.03;2.58;;;10.90;96.70;;;;;;4859210;29;20069;-75
2023/11/11 02:40:24;;;;;;;5.30;2.15;;;10.80;96.70;;;;;;4809586;29;20053;-75
2023/11/11 02:46:53;;;;;;;4.45;2.67;;;10.80;96.70;;;;;;4820301;29;20084;-75
2023/11/11 02:50:37;;;;;;;5.80;2.60;;;10.80;96.70;;;;;;4798457;29;20139;-75
2023/11/11 02:53:49;;;;;;;4.65;2.35;;;10.80;96.70;;;;;;4803097;29;20431;-75
2023/11/11 02:57:07;;;;;;;4.70;2.30;;;10.70;96.70;;;;;;4806798;29;20061;-76
2023/11/11 02:59:55;;;;;;;5.00;2.60;;;10.70;96.70;;;;;;4793950;29;20103;-75
2023/11/11 03:02:30;;;;;;;5.60;2.53;;;10.70;96.70;;;;;;4798932;29;20062;-76
2023/11/11 03:05:00;;;;;;;3.65;2.20;;;10.70;96.70;;;;;;4803501;29;20050;-75
2023/11/11 03:07:29;;;;;;;5.13;2.70;;;10.70;96.70;;;;;;4795766;29;20058;-75
2023/11/11 03:10:21;;;;;;;4.30;2.30;;;10.60;96.70;;;;;;4788549;29;20073;-75
2023/11/11 03:12:53;;;;;;;4.82;2.42;;;10.70;96.70;;;;;;4807420;29;20107;-76
2023/11/11 03:16:08;;;;;;;5.00;2.10;;;10.70;96.70;;;;;;4872656;29;20067;-75
2023/11/11 03:19:26;;;;;;;7.40;2.70;;;10.60;96.70;;;;;;4911743;29;20050;-75
2023/11/11 03:21:56;;;;;;;3.72;2.22;;;10.60;96.70;;;;;;4917547;29;20051;-76
2023/11/11 03:24:28;;;;;;;5.00;2.88;;;10.60;96.70;;;;;;4893718;29;20123;-76
2023/11/11 03:28:13;;;;;;;6.03;3.00;;;10.60;96.70;;;;;;4905778;29;20055;-76
2023/11/11 03:31:13;;;;;;;18.65;4.32;;;10.70;96.70;;;;;;4883973;29;20063;-76
2023/11/11 03:33:43;;;;;;;7.03;3.33;;;10.70;96.70;;;;;;4891595;29;20052;-76
2023/11/11 03:36:12;;;;;;;5.97;3.47;;;10.70;96.70;;;;;;4919601;29;20163;-76
2023/11/11 03:39:06;;;;;;;11.88;3.00;;;10.60;96.70;;;;;;4926175;29;20048;-76
2023/11/11 03:45:37;;;;;;;4.97;2.55;;;10.60;96.70;;;;;;4838817;29;20724;-76
2023/11/11 03:48:45;;;;;;;5.30;2.80;;;10.60;96.70;;;;;;4824136;29;20054;-76
2023/11/11 03:51:15;;;;;;;4.32;2.72;;;10.50;96.70;;;;;;4872446;29;20069;-76
2023/11/11 03:54:23;;;;;;;3.70;2.75;;;10.40;96.70;;;;;;4878771;29;20088;-76
2023/11/11 03:57:15;;;;;;;2.80;2.42;;;10.40;96.70;;;;;;4858415;29;20080;-76
2023/11/11 03:59:46;;;;;;;4.00;3.05;;;10.40;96.70;;;;;;4874700;29;20111;-76
2023/11/11 04:02:18;;;;;;;4.18;3.13;;;10.50;96.70;;;;;;4889804;29;20595;-76
2023/11/11 04:04:51;;;;;;;3.42;2.70;;;10.40;96.70;;;;;;4863529;29;20056;-75
2023/11/11 04:07:21;;;;;;;4.18;2.63;;;10.30;96.70;;;;;;4879631;29;20080;-76
2023/11/11 04:09:53;;;;;;;3.63;2.63;;;10.30;96.70;;;;;;4878625;29;20104;-76
2023/11/11 04:12:24;;;;;;;3.67;2.80;;;10.30;96.70;;;;;;4887813;29;20071;-76
2023/11/11 04:14:54;;;;;;;3.15;2.38;;;10.30;96.70;;;;;;4879155;29;20238;-76
2023/11/11 04:18:05;;;;;;;2.75;2.50;;;10.30;96.70;;;;;;4903123;29;20100;-76
2023/11/11 04:20:58;;;;;;;2.97;2.50;;;10.20;96.70;;;;;;4854712;29;20083;-76
2023/11/11 04:23:54;;;;;;;3.65;2.60;;;10.30;96.70;;;;;;4910952;29;20476;-75
2023/11/11 04:27:22;;;;;;;3.38;2.33;;;10.30;96.70;;;;;;4896896;29;20056;-76
2023/11/11 04:29:55;;;;;;;4.05;2.75;;;10.20;96.70;;;;;;4909415;29;20135;-76
2023/11/11 04:33:04;;;;;;;3.33;2.17;;;10.20;96.70;;;;;;4926701;29;20071;-76
2023/11/11 04:39:32;;;;;;;3.22;2.30;;;10.20;96.70;;;;;;4900004;29;20068;-76
2023/11/11 04:42:40;;;;;;;;;;;;;;;;;;;;;
2023/11/11 04:45:16;;;;;;;2.60;1.83;;;10.10;96.70;;;;;;4923411;29;20055;-76
2023/11/11 04:47:47;;;;;;;4.72;2.72;;;10.10;96.70;;;;;;4925362;29;20071;-76
2023/11/11 04:50:21;;;;;;;3.47;2.10;;;10.20;96.70;;;;;;4902413;29;20040;-75
2023/11/11 04:52:51;;;;;;;3.85;2.55;;;10.20;96.70;;;;;;4913709;29;20099;-76
2023/11/11 04:55:25;;;;;;;5.45;2.08;;;10.30;96.70;;;;;;4895708;29;20060;-76
2023/11/11 04:58:31;;;;;;;3.80;2.03;;;10.30;96.70;;;;;;4918412;29;20131;-76
2023/11/11 05:01:11;;;;;;;2.30;1.95;;;10.30;96.70;;;;;;4919236;29;20060;-76
2023/11/11 05:03:56;;;;;;;2.78;2.20;;;10.20;96.70;;;;;;4924134;29;20083;-76
2023/11/11 05:06:27;;;;;;;2.75;2.15;;;10.20;96.70;;;;;;4925231;29;20064;-76
2023/11/11 05:08:57;;;;;;;3.75;2.33;;;10.10;96.70;;;;;;4906242;29;20075;-76
2023/11/11 05:11:43;;;;;;;4.13;2.30;;;10.10;96.70;;;;;;4912434;29;20051;-76
2023/11/11 05:14:17;;;;;;;2.88;2.35;;;10.20;96.70;;;;;;4924463;29;20066;-75
2023/11/11 05:16:50;;;;;;;4.38;2.35;;;10.10;96.70;;;;;;4924380;29;20050;-76
2023/11/11 05:19:25;;;;;;;5.88;2.85;;;10.20;96.70;;;;;;4903866;29;20056;-76
2023/11/11 05:21:58;;;;;;;4.03;2.65;;;10.20;96.70;;;;;;4917509;29;20050;-76
2023/11/11 05:24:28;;;;;;;8.20;3.30;;;10.10;96.70;;;;;;4895072;29;20146;-76
2023/11/11 05:30:11;;;;;;;11.77;2.92;;;9.80;96.70;;;;;;4918229;29;20099;-76
2023/11/11 05:32:56;;;;;;;9.05;2.45;;;9.70;96.70;;;;;;4915707;29;20064;-76
2023/11/11 05:36:21;;;;;;;8.88;2.28;;;9.60;96.70;;;;;;4922238;29;20127;-76
2023/11/11 05:38:53;;;;;;;7.40;2.40;;;9.50;96.70;;;;;;4920322;29;20090;-76
2023/11/11 05:41:29;;;;;;;7.43;2.42;;;9.60;96.70;;;;;;4912194;29;20693;-76
2023/11/11 05:45:06;;;;;;;12.82;2.30;;;9.60;96.70;;;;;;4909857;29;20064;-75
2023/11/11 05:47:13;;;;;;;22.48;2.70;;;9.40;96.70;;;;;;4898366;29;20051;-75
2023/11/11 05:54:06;;;;;;;15.23;2.88;;;9.20;96.70;;;;;;4902385;29;20159;-76
2023/11/11 05:56:42;;;;;;;15.32;2.53;;;9.20;96.70;;;;;;4915254;29;20055;-76
2023/11/11 06:00:01;;;;;;;22.75;3.45;;;9.20;96.70;;;;;;4917886;29;20040;-76
2023/11/11 06:02:39;;;;;;;5.38;2.80;;;9.20;96.70;;;;;;4915959;29;20094;-76
2023/11/11 06:09:25;;;;;;;4.90;3.40;;;9.30;96.70;;;;;;4927933;29;20052;-77
2023/11/11 06:12:08;;;;;;;5.75;3.70;;;9.40;96.70;;;;;;4900847;29;20060;-76
2023/11/11 06:15:44;;;;;;;4.05;3.08;;;9.40;96.70;;;;;;4881054;29;20091;-76
2023/11/11 06:18:16;;;;;;;4.70;3.50;;;9.40;96.70;;;;;;4887257;29;20094;-76
2023/11/11 06:20:59;;;;;;;4.15;2.95;;;9.40;96.70;;;;;;4926685;29;20059;-76
2023/11/11 06:23:35;;;;;;;5.13;2.95;;;9.60;96.70;;;;;;4906812;29;20151;-76
2023/11/11 06:27:24;;;;;;;7.03;2.95;;;9.70;96.70;;;;;;4902190;29;20214;-76
2023/11/11 06:29:54;;;;;;;7.45;3.40;;;9.80;96.70;;;;;;4914306;29;20054;-76
2023/11/11 06:32:36;;;;;;;4.72;2.97;;;9.80;96.70;;;;;;4926204;29;20055;-76
2023/11/11 06:35:39;;;;;;;4.78;2.90;;;9.80;96.70;;;;;;4905341;29;20048;-75
2023/11/11 06:38:10;;;;;;;3.08;2.63;;;9.80;96.70;;;;;;4921531;29;20058;-76
2023/11/11 06:40:48;;;;;;;9.02;3.03;;;9.90;96.70;;;;;;4889866;29;20055;-75
2023/11/11 06:43:28;;;;;;;;;;;;;;;;;;;;;
2023/11/11 06:46:07;;;;;;;4.38;2.15;;;9.70;96.70;;;;;;4915119;29;20087;-76
2023/11/11 06:50:17;;;;;;;3.63;2.45;;;9.70;96.70;;;;;;4911127;29;20086;-76
2023/11/11 06:54:12;;;;;;;;;;;;;;;;;;;;;
2023/11/11 06:57:28;;;;;;;3.67;3.00;;;9.80;96.70;;;;;;4785234;29;20159;-77
2023/11/11 06:59:58;;;;;;;3.90;3.20;;;9.70;96.70;;;;;;4838933;29;20041;-77
2023/11/11 07:02:40;;;;;;;5.47;2.95;;;9.70;96.70;;;;;;4847608;29;20053;-78
2023/11/11 07:06:32;;;;;;;;;;;;;;;;;;;;;
2023/11/11 07:14:33;;;;;;;3.30;2.42;;;10.00;96.70;;;;;;4761921;30;20067;-76
2023/11/11 07:18:11;;;;;;;3.47;2.30;;;9.90;96.70;;;;;;4749889;30;20093;-77
2023/11/11 07:21:17;;;;;;;2.58;2.30;;;9.90;96.70;;;;;;4765950;30;20068;-77
2023/11/11 07:25:05;;;;;;;1.85;1.67;;;10.00;96.70;;;;;;4759547;30;20071;-76
2023/11/11 07:28:19;;;;;;;2.97;2.67;;;10.20;96.70;;;;;;4753585;30;20150;-75
2023/11/11 07:31:17;;;;;;;4.18;2.70;;;10.30;96.70;;;;;;4747120;30;20063;-75
2023/11/11 07:33:55;;;;;;;3.38;3.08;;;10.30;96.70;;;;;;4757865;29;20055;-77
2023/11/11 07:36:28;;;;;;;5.70;4.50;;;10.50;96.70;;;;;;4793913;29;20067;-75
2023/11/11 07:39:08;;;;;;;4.63;3.30;;;10.60;96.70;;;;;;4788210;29;20512;-76
2023/11/11 07:41:40;;;;;;;4.70;3.00;;;10.60;96.70;;;;;;4774655;29;20059;-76
2023/11/11 07:44:10;;;;;;;4.03;3.10;;;10.60;96.70;;;;;;4759205;29;20063;-76
2023/11/11 07:46:41;;;;;;;3.47;3.17;;;10.60;96.70;;;;;;4796357;29;20540;-76
2023/11/11 07:49:13;;;;;;;2.67;2.33;;;10.70;96.70;;;;;;4837493;29;20112;-76
2023/11/11 07:52:09;;;;;;;4.00;2.60;;;10.70;96.70;;;;;;4928428;29;20561;-75
2023/11/11 07:59:13;;;;;;;7.00;4.38;;;10.90;96.70;;;;;;4758948;30;21255;-75
2023/11/11 08:01:45;;;;;;;7.15;4.18;;;11.00;96.70;;;;;;4787702;29;20085;-75
2023/11/11 08:04:15;;;;;;;7.60;3.50;;;11.00;96.70;;;;;;4900217;29;20143;-76
2023/11/11 08:06:45;;;;;;;3.95;2.80;;;11.10;96.70;;;;;;4928476;29;20740;-75
2023/11/11 08:10:27;;;;;;;5.55;2.70;;;11.10;96.70;;;;;;4916629;29;20147;-74
2023/11/11 08:12:57;;;;;;;2.95;2.30;;;11.20;96.70;;;;;;4912079;29;20078;-74
2023/11/11 08:19:58;;;;;;;3.95;2.60;;;11.30;96.70;;;;;;4913010;29;20041;-76
2023/11/11 08:22:47;;;;;;;;;;;;;;;;;;;;;
2023/11/11 08:25:51;;;;;;;4.20;2.60;;;11.50;96.70;;;;;;4920360;29;20135;-75
2023/11/11 08:28:22;;;;;;;4.60;2.35;;;11.60;96.70;;;;;;4908588;29;20082;-76
2023/11/11 08:31:32;;;;;;;4.28;2.30;;;11.70;96.70;;;;;;4926545;29;20058;-75
2023/11/11 08:34:31;;;;;;;5.45;3.40;;;11.70;96.70;;;;;;4899674;29;20492;-76
2023/11/11 08:38:00;;;;;;;3.42;2.35;;;11.70;96.70;;;;;;4878840;29;20122;-76
2023/11/11 08:45:13;;;;;;;5.78;2.22;;;11.80;96.70;;;;;;4836303;29;20589;-76
2023/11/11 08:52:10;;;;;;;8.18;5.80;;;12.00;96.70;;;;;;4792012;29;20062;-76
2023/11/11 09:04:19;;;;;;;4.43;2.63;;;12.20;96.70;;;;;;4796476;29;20333;-76
2023/11/11 09:07:13;;;;;;;3.67;2.65;;;12.40;96.70;;;;;;4833955;29;20136;-75
2023/11/11 09:09:53;;;;;;;4.88;2.47;;;12.40;96.70;;;;;;4829980;29;20102;-75
2023/11/11 09:12:23;;;;;;;4.57;2.22;;;12.40;96.70;;;;;;4834462;29;20421;-74
2023/11/11 09:15:28;;;;;;;6.68;2.72;;;12.40;96.70;;;;;;4833943;29;20098;-76
2023/11/11 09:18:02;;;;;;;5.22;2.45;;;12.40;96.70;;;;;;4836206;29;20053;-75
2023/11/11 09:20:33;;;;;;;4.55;2.40;;;12.40;96.70;;;;;;4844475;29;20155;-75
2023/11/11 09:23:02;;;;;;;3.95;2.60;;;12.50;96.70;;;;;;4906430;29;20060;-76
2023/11/11 09:25:51;;;;;;;4.72;2.75;;;12.60;96.70;;;;;;4909933;29;20461;-74
2023/11/11 09:28:51;;;;;;;5.30;3.03;;;12.70;96.70;;;;;;4889964;29;20531;-74
2023/11/11 09:31:22;;;;;;;5.25;2.53;;;12.90;96.70;;;;;;4906290;29;20066;-74
2023/11/11 09:33:55;;;;;;;5.78;2.47;;;13.00;96.70;;;;;;4891054;29;20048;-74
2023/11/11 09:36:29;;;;;;;6.18;2.60;;;13.10;96.70;;;;;;4903615;29;20044;-74
2023/11/11 09:38:59;;;;;;;3.72;2.17;;;13.10;96.70;;;;;;4885943;29;20112;-73
2023/11/11 09:41:32;;;;;;;7.15;2.22;;;13.30;96.70;;;;;;4882625;29;20044;-74
2023/11/11 09:44:05;;;;;;;5.10;2.00;;;13.30;96.70;;;;;;4895637;29;20044;-75
2023/11/11 09:46:44;;;;;;;3.30;1.77;;;13.40;96.70;;;;;;4906504;29;20083;-75
2023/11/11 09:49:15;;;;;;;3.97;2.08;;;13.50;96.70;;;;;;4891025;29;20063;-75
2023/11/11 09:51:48;;;;;;;4.40;2.22;;;13.60;96.70;;;;;;4891768;29;20151;-73
2023/11/11 09:54:18;;;;;;;5.13;1.77;;;13.60;96.70;;;;;;4890590;29;20123;-73
2023/11/11 09:56:49;;;;;;;8.07;2.42;;;13.70;96.70;;;;;;4875451;29;20068;-73
2023/11/11 09:59:43;;;;;;;9.13;2.42;;;13.80;96.70;;;;;;4884339;29;20048;-74
2023/11/11 10:02:45;;;;;;;6.75;2.28;;;13.90;96.70;;;;;;4913196;29;20064;-84
2023/11/11 10:05:17;;;;;;;7.78;1.95;;;14.00;96.70;;;;;;4886793;29;20064;-74
2023/11/11 10:07:49;;;;;;;7.72;2.47;;;14.10;96.70;;;;;;4893522;29;20143;-75
2023/11/11 10:10:19;;;;;;;4.57;2.35;;;14.10;96.70;;;;;;4912734;29;20048;-75
2023/11/11 10:12:51;;;;;;;5.90;1.65;;;14.10;96.70;;;;;;4909740;29;20052;-74
2023/11/11 10:15:22;;;;;;;5.13;2.30;;;14.20;96.70;;;;;;4901459;29;20076;-74
2023/11/11 10:18:00;;;;;;;6.03;1.98;;;14.30;96.70;;;;;;4900864;29;20082;-74
2023/11/11 10:20:30;;;;;;;5.28;2.00;;;14.40;96.70;;;;;;4885393;29;20045;-73
2023/11/11 10:23:05;;;;;;;5.13;1.83;;;14.50;96.70;;;;;;4909829;29;20160;-74
2023/11/11 10:25:58;;;;;;;7.22;1.95;;;14.50;96.70;;;;;;4904318;29;20056;-74
2023/11/11 10:28:53;;;;;;;5.22;1.90;;;14.60;96.70;;;;;;4921903;29;20044;-75
2023/11/11 10:31:48;;;;;;;7.45;3.25;;;14.80;96.70;;;;;;4903434;29;20219;-76
2023/11/11 10:34:17;;;;;;;4.57;2.00;;;14.90;96.70;;;;;;4878299;29;20056;-76
2023/11/11 10:36:47;;;;;;;4.95;2.20;;;14.90;96.70;;;;;;4880849;29;20063;-75
2023/11/11 10:39:22;;;;;;;6.20;1.90;;;14.90;96.70;;;;;;4858421;29;21332;-75
2023/11/11 10:42:21;;;;;;;4.65;2.15;;;15.00;96.70;;;;;;4899890;29;20096;-73
2023/11/11 10:44:50;;;;;;;12.18;2.22;;;15.10;96.70;;;;;;4886950;29;20056;-74
2023/11/11 10:47:19;;;;;;;9.80;2.25;;;15.20;96.70;;;;;;4895024;29;20045;-74
2023/11/11 10:49:49;;;;;;;6.97;1.88;;;15.30;96.70;;;;;;4869945;29;20052;-74
2023/11/11 10:52:20;;;;;;;9.43;2.28;;;15.40;96.70;;;;;;4897792;29;20056;-74
2023/11/11 10:55:00;;;;;;;7.53;2.15;;;15.60;96.70;;;;;;4873590;29;20852;-73
2023/11/11 10:57:32;;;;;;;6.82;2.22;;;15.60;96.70;;;;;;4858258;29;20053;-74
2023/11/11 11:00:04;;;;;;;8.13;2.10;;;15.70;96.70;;;;;;4855337;29;20049;-74
2023/11/11 11:02:33;;;;;;;11.70;2.75;;;15.70;96.70;;;;;;4892269;29;20055;-74
2023/11/11 11:05:09;;;;;;;9.10;1.90;;;15.80;96.70;;;;;;4908861;29;20765;-75
2023/11/11 11:07:44;;;;;;;6.15;1.40;;;16.00;96.70;;;;;;4911684;29;20591;-75
2023/11/11 11:10:24;;;;;;;6.10;2.08;;;16.10;96.70;;;;;;4912091;29;20076;-75
2023/11/11 11:12:56;;;;;;;11.05;2.40;;;16.30;96.70;;;;;;4903091;29;20052;-74
2023/11/11 11:15:26;;;;;;;6.07;1.60;;;16.30;96.70;;;;;;4927511;29;20051;-75
2023/11/11 11:17:55;;;;;;;9.00;2.97;;;16.30;96.70;;;;;;4902744;29;20047;-75
2023/11/11 11:20:26;;;;;;;6.63;1.90;;;16.60;96.70;;;;;;4915708;29;20551;-75
2023/11/11 11:22:59;;;;;;;7.97;1.67;;;16.70;96.70;;;;;;4903609;29;20055;-74
2023/11/11 11:25:37;;;;;;;8.68;1.88;;;16.80;96.70;;;;;;4913332;29;20052;-74
2023/11/11 11:28:46;;;;;;;8.65;1.60;;;16.80;96.70;;;;;;4912812;29;20111;-74
2023/11/11 11:32:02;;;;;;;9.32;1.90;;;16.90;96.70;;;;;;4928340;29;20493;-74
2023/11/11 11:34:31;;;;;;;8.63;1.63;;;16.90;96.70;;;;;;4902677;29;20052;-74
2023/11/11 11:37:15;;;;;;;12.48;2.33;;;17.10;96.70;;;;;;4912652;29;20096;-73
2023/11/11 11:40:01;;;;;;;9.43;2.97;;;17.20;96.70;;;;;;4895960;29;20104;-73
2023/11/11 11:42:35;;;;;;;10.68;2.78;;;17.40;96.70;;;;;;4903517;29;20163;-73
2023/11/11 11:45:06;;;;;;;8.15;1.50;;;17.50;96.70;;;;;;4893355;29;20775;-74
2023/11/11 11:47:36;;;;;;;13.70;1.80;;;17.60;96.70;;;;;;4921510;29;20126;-73
2023/11/11 11:50:07;;;;;;;5.55;1.17;;;17.70;96.70;;;;;;4899015;29;20111;-73
2023/11/11 11:52:37;;;;;;;7.93;1.45;;;18.00;96.70;;;;;;4894510;29;20056;-75
2023/11/11 11:55:07;;;;;;;5.28;1.20;;;18.00;96.70;;;;;;4912205;29;20123;-76
2023/11/11 11:57:53;;;;;;;9.43;1.35;;;18.20;96.70;;;;;;4904968;29;20063;-74
2023/11/11 12:00:24;;;;;;;6.15;1.50;;;18.20;96.70;;;;;;4912517;29;20054;-75
2023/11/11 12:02:53;;;;;;;6.15;1.40;;;18.10;96.70;;;;;;4905118;29;20572;-73
2023/11/11 12:05:25;;;;;;;5.38;1.20;;;17.90;96.70;;;;;;4912106;29;20067;-73
2023/11/11 12:07:55;;;;;;;8.80;1.77;;;17.70;96.70;;;;;;4887531;29;20047;-76
2023/11/11 12:10:44;;;;;;;7.13;1.45;;;17.70;96.70;;;;;;4902686;29;20083;-73
2023/11/11 12:18:20;;;;;;;5.22;1.30;;;17.80;96.70;;;;;;4834760;29;20049;-82
2023/11/11 12:21:02;;;;;;;;;;;;;;;;;;;;;
2023/11/11 12:23:39;;;;;;;9.07;1.67;;;17.80;96.70;;;;;;4829536;29;20057;-73
2023/11/11 12:26:14;;;;;;;6.18;1.55;;;17.90;96.70;;;;;;4831224;29;20136;-73
2023/11/11 12:28:44;;;;;;;10.32;1.58;;;18.00;96.70;;;;;;4819727;29;20050;-73
2023/11/11 12:31:13;;;;;;;6.38;1.27;;;17.80;96.70;;;;;;4829032;29;20057;-73
2023/11/11 12:33:44;;;;;;;6.20;1.38;;;17.60;96.70;;;;;;4828126;29;20049;-73
2023/11/11 12:36:16;;;;;;;5.95;1.20;;;17.70;96.70;;;;;;4833594;29;20114;-73
2023/11/11 12:38:46;;;;;;;5.55;1.20;;;17.80;96.70;;;;;;4843171;29;20061;-72
2023/11/11 12:41:25;;;;;;;7.05;1.25;;;17.90;96.70;;;;;;4850266;29;20220;-72
2023/11/11 12:43:57;;;;;;;5.93;1.00;;;17.80;96.70;;;;;;4847662;29;20098;-73
2023/11/11 12:46:27;;;;;;;8.15;1.25;;;17.80;96.70;;;;;;4827820;29;20064;-72
2023/11/11 12:49:07;;;;;;;3.72;1.10;;;17.50;96.70;;;;;;4829507;29;20733;-72
2023/11/11 12:51:44;;;;;;;7.10;1.60;;;17.20;96.70;;;;;;4913384;29;20063;-70
2023/11/11 12:54:56;;;;;;;10.05;2.65;;;17.20;96.70;;;;;;4928744;29;20059;-71
2023/11/11 12:57:27;;;;;;;7.68;1.27;;;17.20;96.70;;;;;;4887265;29;20083;-73
2023/11/11 12:59:57;;;;;;;8.80;1.33;;;17.30;96.70;;;;;;4923721;29;20138;-73
2023/11/11 13:02:27;;;;;;;5.47;1.27;;;17.40;96.70;;;;;;4923902;29;20043;-74
2023/11/11 13:04:56;;;;;;;7.15;1.50;;;17.40;96.70;;;;;;4917466;29;20131;-75
2023/11/11 13:07:29;;;;;;;7.63;1.85;;;17.20;96.70;;;;;;4907178;29;20062;-75
2023/11/11 13:09:59;;;;;;;8.25;1.73;;;17.20;96.70;;;;;;4921758;29;20052;-76
2023/11/11 13:12:30;;;;;;;11.52;1.88;;;17.30;96.70;;;;;;4905625;29;20060;-73
2023/11/11 13:15:01;;;;;;;9.57;1.40;;;17.40;96.70;;;;;;4898193;29;20087;-72
2023/11/11 13:17:30;;;;;;;9.52;1.75;;;17.40;96.70;;;;;;4888137;29;20456;-72
2023/11/11 13:19:59;;;;;;;24.13;14.85;;;17.40;96.70;;;;;;4912593;29;20077;-73
2023/11/11 13:22:31;;;;;;;15.10;3.13;;;17.40;96.70;;;;;;4928146;29;20048;-73
2023/11/11 13:25:01;;;;;;;13.57;2.38;;;17.50;96.70;;;;;;4912445;29;20060;-74
2023/11/11 13:27:30;;;;;;;9.20;2.35;;;17.40;96.70;;;;;;4888392;29;20059;-73
2023/11/11 13:29:58;;;;;;;9.82;1.75;;;17.50;96.70;;;;;;4908738;29;20048;-73
2023/11/11 13:32:27;;;;;;;7.15;1.10;;;17.50;96.70;;;;;;4912860;29;20420;-71
2023/11/11 13:34:57;;;;;;;7.03;1.80;;;17.50;96.70;;;;;;4914070;29;20532;-71
2023/11/11 13:37:27;;;;;;;5.07;1.77;;;17.50;96.70;;;;;;4904757;29;20055;-73
2023/11/11 13:40:00;;;;;;;6.53;1.70;;;17.40;96.70;;;;;;4906611;29;20523;-72
2023/11/11 13:42:37;;;;;;;12.45;3.63;;;17.20;96.70;;;;;;4904376;29;20143;-72
2023/11/11 13:45:10;;;;;;;16.02;4.90;;;17.10;96.70;;;;;;4890300;29;20055;-72
2023/11/11 13:48:09;;;;;;;15.27;3.00;;;17.20;96.70;;;;;;4924124;29;20194;-72
2023/11/11 13:50:58;;;;;;;13.38;3.65;;;17.10;96.70;;;;;;4919477;29;20067;-72
2023/11/11 13:53:28;;;;;;;12.88;2.50;;;17.00;96.70;;;;;;4896894;29;20051;-72
2023/11/11 13:56:02;;;;;;;9.80;1.65;;;16.80;96.70;;;;;;4918664;29;20500;-72
2023/11/11 13:58:40;;;;;;;13.02;2.25;;;16.80;96.70;;;;;;4922754;29;20052;-72
2023/11/11 14:01:10;;;;;;;9.55;1.77;;;16.70;96.70;;;;;;4915127;29;20103;-72
2023/11/11 14:04:02;;;;;;;9.40;2.35;;;16.70;96.70;;;;;;4896211;29;20052;-72
2023/11/11 14:06:36;;;;;;;7.85;1.67;;;16.80;96.70;;;;;;4891814;29;20609;-72
2023/11/11 14:09:10;;;;;;;11.48;2.58;;;16.70;96.70;;;;;;4891409;29;20497;-73
2023/11/11 14:11:52;;;;;;;9.45;3.05;;;16.60;96.70;;;;;;4916854;29;20673;-72
2023/11/11 14:14:33;;;;;;;11.88;2.33;;;16.60;96.70;;;;;;4914720;29;20517;-72
2023/11/11 14:17:57;;;;;;;;;;;;;;;;;;;;;
2023/11/11 14:20:29;;;;;;;9.60;3.40;;;16.60;96.70;;;;;;4907008;29;20079;-72
2023/11/11 14:23:10;;;;;;;9.25;2.92;;;16.50;96.70;;;;;;4926368;29;20155;-72
2023/11/11 14:25:55;;;;;;;14.57;2.80;;;16.40;96.70;;;;;;4905660;29;20063;-72
2023/11/11 14:28:41;;;;;;;9.38;2.75;;;16.50;96.70;;;;;;4909208;29;20108;-71
2023/11/11 14:31:11;;;;;;;10.35;3.75;;;16.40;96.70;;;;;;4926423;29;20051;-72
2023/11/11 14:33:44;;;;;;;15.25;6.18;;;16.40;96.70;;;;;;4882806;29;20062;-72
2023/11/11 14:37:41;;;;;;;13.82;4.05;;;16.30;96.70;;;;;;4907042;29;20044;-72
2023/11/11 14:44:27;;;;;;;11.70;2.53;;;16.20;96.70;;;;;;4820521;29;20049;-71
2023/11/11 14:46:56;;;;;;;10.65;4.32;;;16.10;96.70;;;;;;4827238;29;20264;-71
2023/11/11 14:49:28;;;;;;;15.20;6.95;;;16.10;96.70;;;;;;4868438;29;20147;-71
2023/11/11 14:51:59;;;;;;;12.73;3.40;;;16.00;96.70;;;;;;4870458;29;20081;-71
2023/11/11 14:54:41;;;;;;;;;;;;;;;;;;;;;
2023/11/11 14:57:12;;;;;;;13.70;3.22;;;16.00;96.70;;;;;;4842290;29;20049;-71
2023/11/11 14:59:49;;;;;;;7.35;2.20;;;16.10;96.70;;;;;;4862653;29;20060;-71
2023/11/11 15:02:36;;;;;;;;;;;;;;;;;;;;;
2023/11/11 15:06:42;;;;;;;11.10;2.88;;;16.10;96.70;;;;;;4769986;29;20070;-72
2023/11/11 15:09:32;;;;;;;7.13;2.78;;;16.10;96.70;;;;;;4787472;29;20540;-74
2023/11/11 15:12:01;;;;;;;11.82;2.92;;;16.00;96.70;;;;;;4799882;29;20061;-74
2023/11/11 15:14:31;;;;;;;14.35;3.78;;;16.00;96.70;;;;;;4798528;29;20054;-74
2023/11/11 15:17:01;;;;;;;10.43;2.47;;;16.00;96.70;;;;;;4828774;29;20541;-75
2023/11/11 15:19:30;;;;;;;9.63;2.80;;;16.00;96.70;;;;;;4853145;29;20077;-74
2023/11/11 15:21:59;;;;;;;9.48;2.22;;;15.90;96.70;;;;;;4818012;29;20034;-75
2023/11/11 15:24:28;;;;;;;18.73;10.00;;;15.90;96.70;;;;;;4850898;29;20061;-75
2023/11/11 15:26:57;;;;;;;14.60;6.38;;;16.00;96.70;;;;;;4851997;29;20132;-75
2023/11/11 15:29:26;;;;;;;15.77;6.65;;;15.90;96.70;;;;;;4837040;29;20080;-75
2023/11/11 15:31:58;;;;;;;39.67;30.42;;;16.00;96.70;;;;;;4830398;29;21648;-75
2023/11/11 15:34:31;;;;;;;23.70;10.23;;;15.90;96.70;;;;;;4836396;29;20057;-74
2023/11/11 15:36:59;;;;;;;15.63;7.47;;;15.80;96.70;;;;;;4833335;29;20053;-76
2023/11/11 15:39:32;;;;;;;14.43;8.65;;;15.70;96.70;;;;;;4857543;29;20064;-75
2023/11/11 15:42:01;;;;;;;16.65;8.02;;;15.60;96.70;;;;;;4910273;29;20080;-76
2023/11/11 15:44:30;;;;;;;16.67;9.55;;;15.50;96.70;;;;;;4894488;29;20460;-74
2023/11/11 15:47:00;;;;;;;46.70;34.15;;;15.50;96.70;;;;;;4923510;29;20456;-74
2023/11/11 15:49:31;;;;;;;37.55;25.13;;;15.40;96.70;;;;;;4919513;29;20532;-74
2023/11/11 15:52:01;;;;;;;78.97;47.40;;;15.30;96.70;;;;;;4912541;29;20058;-75
2023/11/11 15:54:30;;;;;;;44.28;23.75;;;15.30;96.70;;;;;;4910965;29;20105;-74
2023/11/11 15:57:05;;;;;;;23.38;13.15;;;15.20;96.70;;;;;;4918678;29;20590;-74
2023/11/11 15:59:34;;;;;;;29.63;16.30;;;15.20;96.70;;;;;;4910630;29;20048;-74
2023/11/11 16:02:03;;;;;;;25.63;14.18;;;15.20;96.70;;;;;;4895966;29;20067;-74
2023/11/11 16:04:34;;;;;;;28.65;11.00;;;15.20;96.70;;;;;;4922685;29;20051;-74
2023/11/11 16:07:04;;;;;;;17.45;8.45;;;15.20;96.70;;;;;;4919144;29;20050;-73
2023/11/11 16:09:34;;;;;;;15.73;7.95;;;15.20;96.70;;;;;;4910368;29;20055;-74
2023/11/11 16:12:04;;;;;;;12.93;6.50;;;15.20;96.70;;;;;;4911129;29;20056;-74